sensor_id;sensor_type;location;lat;lon;timestamp;P1;durP1;ratioP1;P2;durP2;ratioP2
38132;SDS011;23948;43.252;26.572;2022-11-03T00:00:58;15.85;;;8.50;;
38132;SDS011;23948;43.252;26.572;2022-11-03T00:03:25;16.67;;;7.55;;
38132;SDS011;23948;43.252;26.572;2022-11-03T00:05:51;21.60;;;8.05;;
38132;SDS011;23948;43.252;26.572;2022-11-03T00:08:30;20.13;;;8.73;;
38132;SDS011;23948;43.252;26.572;2022-11-03T00:13:29;17.30;;;8.13;;
38132;SDS011;23948;43.252;26.572;2022-11-03T00:15:55;14.18;;;8.10;;
38132;SDS011;23948;43.252;26.572;2022-11-03T00:18:20;16.58;;;8.02;;
38132;SDS011;23948;43.252;26.572;2022-11-03T00:20:54;16.88;;;7.95;;
38132;SDS011;23948;43.252;26.572;2022-11-03T00:23:24;18.55;;;8.20;;
38132;SDS011;23948;43.252;26.572;2022-11-03T00:25:51;20.38;;;7.55;;
38132;SDS011;23948;43.252;26.572;2022-11-03T00:28:17;14.40;;;7.38;;
38132;SDS011;23948;43.252;26.572;2022-11-03T00:30:42;16.48;;;8.15;;
38132;SDS011;23948;43.252;26.572;2022-11-03T00:33:07;17.02;;;7.57;;
38132;SDS011;23948;43.252;26.572;2022-11-03T00:35:33;18.65;;;8.85;;
38132;SDS011;23948;43.252;26.572;2022-11-03T00:37:58;16.50;;;8.18;;
38132;SDS011;23948;43.252;26.572;2022-11-03T00:40:24;13.75;;;7.25;;
38132;SDS011;23948;43.252;26.572;2022-11-03T00:42:49;14.65;;;8.13;;
38132;SDS011;23948;43.252;26.572;2022-11-03T00:45:14;15.82;;;8.88;;
38132;SDS011;23948;43.252;26.572;2022-11-03T00:47:40;15.23;;;8.25;;
38132;SDS011;23948;43.252;26.572;2022-11-03T00:50:25;13.18;;;7.85;;
38132;SDS011;23948;43.252;26.572;2022-11-03T00:52:51;14.80;;;7.35;;
38132;SDS011;23948;43.252;26.572;2022-11-03T00:55:17;15.23;;;7.63;;
38132;SDS011;23948;43.252;26.572;2022-11-03T00:57:43;15.55;;;7.75;;
38132;SDS011;23948;43.252;26.572;2022-11-03T01:00:09;19.42;;;7.88;;
38132;SDS011;23948;43.252;26.572;2022-11-03T01:02:35;15.57;;;7.47;;
38132;SDS011;23948;43.252;26.572;2022-11-03T01:05:01;15.77;;;7.90;;
38132;SDS011;23948;43.252;26.572;2022-11-03T01:07:49;18.50;;;8.65;;
38132;SDS011;23948;43.252;26.572;2022-11-03T01:10:15;16.27;;;7.88;;
38132;SDS011;23948;43.252;26.572;2022-11-03T01:12:40;20.17;;;8.95;;
38132;SDS011;23948;43.252;26.572;2022-11-03T01:15:06;14.98;;;8.57;;
38132;SDS011;23948;43.252;26.572;2022-11-03T01:17:31;15.70;;;8.20;;
38132;SDS011;23948;43.252;26.572;2022-11-03T01:19:57;16.38;;;8.57;;
38132;SDS011;23948;43.252;26.572;2022-11-03T01:22:22;16.13;;;8.88;;
38132;SDS011;23948;43.252;26.572;2022-11-03T01:24:48;18.90;;;8.13;;
38132;SDS011;23948;43.252;26.572;2022-11-03T01:27:16;19.20;;;8.85;;
38132;SDS011;23948;43.252;26.572;2022-11-03T01:29:43;16.08;;;8.48;;
38132;SDS011;23948;43.252;26.572;2022-11-03T01:32:10;16.92;;;8.57;;
38132;SDS011;23948;43.252;26.572;2022-11-03T01:34:36;17.55;;;9.18;;
38132;SDS011;23948;43.252;26.572;2022-11-03T01:37:02;18.00;;;8.57;;
38132;SDS011;23948;43.252;26.572;2022-11-03T01:39:27;14.52;;;8.25;;
38132;SDS011;23948;43.252;26.572;2022-11-03T01:41:53;18.58;;;8.38;;
38132;SDS011;23948;43.252;26.572;2022-11-03T01:46:48;18.67;;;8.57;;
38132;SDS011;23948;43.252;26.572;2022-11-03T01:52:05;19.98;;;8.48;;
38132;SDS011;23948;43.252;26.572;2022-11-03T01:54:35;17.63;;;8.65;;
38132;SDS011;23948;43.252;26.572;2022-11-03T01:57:07;15.48;;;9.30;;
38132;SDS011;23948;43.252;26.572;2022-11-03T01:59:37;14.80;;;8.10;;
38132;SDS011;23948;43.252;26.572;2022-11-03T02:02:04;14.57;;;8.15;;
38132;SDS011;23948;43.252;26.572;2022-11-03T02:04:31;16.80;;;8.02;;
38132;SDS011;23948;43.252;26.572;2022-11-03T02:07:03;16.02;;;8.07;;
38132;SDS011;23948;43.252;26.572;2022-11-03T02:09:38;16.65;;;8.95;;
38132;SDS011;23948;43.252;26.572;2022-11-03T02:12:03;14.60;;;8.75;;
38132;SDS011;23948;43.252;26.572;2022-11-03T02:14:36;17.83;;;8.63;;
38132;SDS011;23948;43.252;26.572;2022-11-03T02:17:13;15.52;;;8.02;;
38132;SDS011;23948;43.252;26.572;2022-11-03T02:19:45;13.82;;;7.65;;
38132;SDS011;23948;43.252;26.572;2022-11-03T02:22:19;16.23;;;7.10;;
38132;SDS011;23948;43.252;26.572;2022-11-03T02:28:04;12.75;;;7.20;;
38132;SDS011;23948;43.252;26.572;2022-11-03T02:30:33;15.65;;;7.40;;
38132;SDS011;23948;43.252;26.572;2022-11-03T02:33:05;14.45;;;7.05;;
38132;SDS011;23948;43.252;26.572;2022-11-03T02:35:37;14.60;;;6.78;;
38132;SDS011;23948;43.252;26.572;2022-11-03T02:38:11;13.68;;;6.78;;
38132;SDS011;23948;43.252;26.572;2022-11-03T02:40:42;14.30;;;6.65;;
38132;SDS011;23948;43.252;26.572;2022-11-03T02:43:12;14.02;;;6.60;;
38132;SDS011;23948;43.252;26.572;2022-11-03T02:45:40;15.85;;;7.15;;
38132;SDS011;23948;43.252;26.572;2022-11-03T02:48:08;13.98;;;7.20;;
38132;SDS011;23948;43.252;26.572;2022-11-03T02:50:35;14.38;;;6.70;;
38132;SDS011;23948;43.252;26.572;2022-11-03T02:53:01;17.20;;;7.55;;
38132;SDS011;23948;43.252;26.572;2022-11-03T03:01:12;14.77;;;7.22;;
38132;SDS011;23948;43.252;26.572;2022-11-03T03:03:53;14.32;;;7.22;;
38132;SDS011;23948;43.252;26.572;2022-11-03T03:06:24;15.35;;;7.07;;
38132;SDS011;23948;43.252;26.572;2022-11-03T03:08:53;12.43;;;7.35;;
38132;SDS011;23948;43.252;26.572;2022-11-03T03:11:23;14.65;;;6.85;;
38132;SDS011;23948;43.252;26.572;2022-11-03T03:14:04;14.43;;;6.95;;
38132;SDS011;23948;43.252;26.572;2022-11-03T03:16:34;15.50;;;7.72;;
38132;SDS011;23948;43.252;26.572;2022-11-03T03:19:29;21.73;;;8.48;;
38132;SDS011;23948;43.252;26.572;2022-11-03T03:22:13;23.42;;;12.82;;
38132;SDS011;23948;43.252;26.572;2022-11-03T03:24:46;16.92;;;9.60;;
38132;SDS011;23948;43.252;26.572;2022-11-03T03:27:15;17.42;;;8.30;;
38132;SDS011;23948;43.252;26.572;2022-11-03T03:29:46;13.77;;;8.38;;
38132;SDS011;23948;43.252;26.572;2022-11-03T03:32:17;14.10;;;7.43;;
38132;SDS011;23948;43.252;26.572;2022-11-03T03:34:46;17.20;;;8.13;;
38132;SDS011;23948;43.252;26.572;2022-11-03T03:37:14;17.55;;;7.60;;
38132;SDS011;23948;43.252;26.572;2022-11-03T03:39:42;13.77;;;7.70;;
38132;SDS011;23948;43.252;26.572;2022-11-03T03:42:12;14.13;;;7.20;;
38132;SDS011;23948;43.252;26.572;2022-11-03T03:44:39;13.02;;;7.10;;
38132;SDS011;23948;43.252;26.572;2022-11-03T03:47:09;20.67;;;9.88;;
38132;SDS011;23948;43.252;26.572;2022-11-03T03:49:56;24.10;;;11.18;;
38132;SDS011;23948;43.252;26.572;2022-11-03T03:52:22;47.78;;;23.10;;
38132;SDS011;23948;43.252;26.572;2022-11-03T03:54:49;33.88;;;18.27;;
38132;SDS011;23948;43.252;26.572;2022-11-03T03:57:16;26.20;;;12.65;;
38132;SDS011;23948;43.252;26.572;2022-11-03T03:59:44;28.40;;;13.00;;
38132;SDS011;23948;43.252;26.572;2022-11-03T04:02:10;20.70;;;10.50;;
38132;SDS011;23948;43.252;26.572;2022-11-03T04:04:36;17.88;;;8.93;;
38132;SDS011;23948;43.252;26.572;2022-11-03T04:07:02;15.98;;;8.90;;
38132;SDS011;23948;43.252;26.572;2022-11-03T04:09:46;19.90;;;9.60;;
38132;SDS011;23948;43.252;26.572;2022-11-03T04:12:12;21.45;;;8.30;;
38132;SDS011;23948;43.252;26.572;2022-11-03T04:14:57;17.85;;;7.95;;
38132;SDS011;23948;43.252;26.572;2022-11-03T04:17:42;18.00;;;7.50;;
38132;SDS011;23948;43.252;26.572;2022-11-03T04:20:28;17.13;;;7.70;;
38132;SDS011;23948;43.252;26.572;2022-11-03T04:23:12;16.50;;;8.65;;
38132;SDS011;23948;43.252;26.572;2022-11-03T04:25:37;22.65;;;10.18;;
38132;SDS011;23948;43.252;26.572;2022-11-03T04:28:09;18.25;;;11.82;;
38132;SDS011;23948;43.252;26.572;2022-11-03T04:30:37;24.35;;;11.52;;
38132;SDS011;23948;43.252;26.572;2022-11-03T04:33:04;23.20;;;12.63;;
38132;SDS011;23948;43.252;26.572;2022-11-03T04:35:38;30.40;;;13.88;;
38132;SDS011;23948;43.252;26.572;2022-11-03T04:38:08;29.13;;;13.57;;
38132;SDS011;23948;43.252;26.572;2022-11-03T04:40:54;39.03;;;18.15;;
38132;SDS011;23948;43.252;26.572;2022-11-03T04:43:22;41.22;;;22.17;;
38132;SDS011;23948;43.252;26.572;2022-11-03T04:46:01;32.70;;;18.92;;
38132;SDS011;23948;43.252;26.572;2022-11-03T04:48:27;34.80;;;17.73;;
38132;SDS011;23948;43.252;26.572;2022-11-03T04:50:54;28.35;;;15.05;;
38132;SDS011;23948;43.252;26.572;2022-11-03T04:53:22;29.52;;;12.38;;
38132;SDS011;23948;43.252;26.572;2022-11-03T04:55:52;20.17;;;10.35;;
38132;SDS011;23948;43.252;26.572;2022-11-03T04:58:22;15.77;;;9.43;;
38132;SDS011;23948;43.252;26.572;2022-11-03T05:00:51;32.20;;;16.13;;
38132;SDS011;23948;43.252;26.572;2022-11-03T05:03:20;35.17;;;16.45;;
38132;SDS011;23948;43.252;26.572;2022-11-03T05:05:50;33.65;;;17.85;;
38132;SDS011;23948;43.252;26.572;2022-11-03T05:08:16;34.63;;;18.05;;
38132;SDS011;23948;43.252;26.572;2022-11-03T05:10:43;27.77;;;14.98;;
38132;SDS011;23948;43.252;26.572;2022-11-03T05:13:14;32.95;;;18.20;;
38132;SDS011;23948;43.252;26.572;2022-11-03T05:15:52;28.38;;;15.77;;
38132;SDS011;23948;43.252;26.572;2022-11-03T05:18:24;26.65;;;13.38;;
38132;SDS011;23948;43.252;26.572;2022-11-03T05:20:58;25.58;;;10.90;;
38132;SDS011;23948;43.252;26.572;2022-11-03T05:23:27;21.00;;;10.20;;
38132;SDS011;23948;43.252;26.572;2022-11-03T05:25:55;24.70;;;11.10;;
38132;SDS011;23948;43.252;26.572;2022-11-03T05:30:52;25.17;;;11.82;;
38132;SDS011;23948;43.252;26.572;2022-11-03T05:33:31;26.35;;;11.50;;
38132;SDS011;23948;43.252;26.572;2022-11-03T05:36:09;27.40;;;10.63;;
38132;SDS011;23948;43.252;26.572;2022-11-03T05:38:37;30.02;;;12.85;;
38132;SDS011;23948;43.252;26.572;2022-11-03T05:41:04;36.67;;;14.38;;
38132;SDS011;23948;43.252;26.572;2022-11-03T05:43:36;32.08;;;11.57;;
38132;SDS011;23948;43.252;26.572;2022-11-03T05:46:01;26.98;;;12.15;;
38132;SDS011;23948;43.252;26.572;2022-11-03T05:48:31;28.65;;;11.55;;
38132;SDS011;23948;43.252;26.572;2022-11-03T05:50:59;24.15;;;11.45;;
38132;SDS011;23948;43.252;26.572;2022-11-03T05:53:38;30.77;;;11.70;;
38132;SDS011;23948;43.252;26.572;2022-11-03T05:56:11;23.30;;;11.40;;
38132;SDS011;23948;43.252;26.572;2022-11-03T05:58:41;49.17;;;12.50;;
38132;SDS011;23948;43.252;26.572;2022-11-03T06:03:37;51.13;;;15.70;;
38132;SDS011;23948;43.252;26.572;2022-11-03T06:06:09;53.42;;;16.33;;
38132;SDS011;23948;43.252;26.572;2022-11-03T06:08:39;42.20;;;17.58;;
38132;SDS011;23948;43.252;26.572;2022-11-03T06:11:04;59.78;;;23.08;;
38132;SDS011;23948;43.252;26.572;2022-11-03T06:16:11;55.25;;;25.42;;
38132;SDS011;23948;43.252;26.572;2022-11-03T06:18:54;45.42;;;23.90;;
38132;SDS011;23948;43.252;26.572;2022-11-03T06:21:20;44.50;;;21.33;;
38132;SDS011;23948;43.252;26.572;2022-11-03T06:23:49;41.50;;;22.20;;
38132;SDS011;23948;43.252;26.572;2022-11-03T06:26:19;47.70;;;23.15;;
38132;SDS011;23948;43.252;26.572;2022-11-03T06:28:48;48.38;;;21.55;;
38132;SDS011;23948;43.252;26.572;2022-11-03T06:31:23;45.30;;;19.73;;
38132;SDS011;23948;43.252;26.572;2022-11-03T06:33:52;41.95;;;19.00;;
38132;SDS011;23948;43.252;26.572;2022-11-03T06:36:25;38.65;;;17.88;;
38132;SDS011;23948;43.252;26.572;2022-11-03T06:39:02;41.10;;;18.85;;
38132;SDS011;23948;43.252;26.572;2022-11-03T06:41:34;31.55;;;15.63;;
38132;SDS011;23948;43.252;26.572;2022-11-03T06:44:01;26.80;;;14.43;;
38132;SDS011;23948;43.252;26.572;2022-11-03T06:46:40;29.52;;;13.55;;
38132;SDS011;23948;43.252;26.572;2022-11-03T06:49:15;23.45;;;12.20;;
38132;SDS011;23948;43.252;26.572;2022-11-03T06:52:16;27.00;;;12.40;;
38132;SDS011;23948;43.252;26.572;2022-11-03T06:54:54;24.30;;;11.70;;
38132;SDS011;23948;43.252;26.572;2022-11-03T06:57:44;20.55;;;11.35;;
38132;SDS011;23948;43.252;26.572;2022-11-03T07:00:21;28.70;;;11.32;;
38132;SDS011;23948;43.252;26.572;2022-11-03T07:05:21;24.10;;;11.90;;
38132;SDS011;23948;43.252;26.572;2022-11-03T07:07:51;28.08;;;12.10;;
38132;SDS011;23948;43.252;26.572;2022-11-03T07:10:21;24.20;;;12.48;;
38132;SDS011;23948;43.252;26.572;2022-11-03T07:12:50;22.25;;;11.60;;
38132;SDS011;23948;43.252;26.572;2022-11-03T07:15:21;27.77;;;11.23;;
38132;SDS011;23948;43.252;26.572;2022-11-03T07:17:50;23.52;;;11.73;;
38132;SDS011;23948;43.252;26.572;2022-11-03T07:20:16;27.33;;;13.30;;
38132;SDS011;23948;43.252;26.572;2022-11-03T07:22:42;26.35;;;15.38;;
38132;SDS011;23948;43.252;26.572;2022-11-03T07:25:13;33.90;;;16.50;;
38132;SDS011;23948;43.252;26.572;2022-11-03T07:27:42;37.08;;;16.40;;
38132;SDS011;23948;43.252;26.572;2022-11-03T07:32:39;35.92;;;15.55;;
38132;SDS011;23948;43.252;26.572;2022-11-03T07:37:46;26.23;;;13.48;;
38132;SDS011;23948;43.252;26.572;2022-11-03T07:40:15;30.73;;;14.13;;
38132;SDS011;23948;43.252;26.572;2022-11-03T07:42:54;31.10;;;14.45;;
38132;SDS011;23948;43.252;26.572;2022-11-03T07:45:36;26.85;;;12.57;;
38132;SDS011;23948;43.252;26.572;2022-11-03T07:50:56;26.75;;;12.77;;
38132;SDS011;23948;43.252;26.572;2022-11-03T07:53:35;31.23;;;13.00;;
38132;SDS011;23948;43.252;26.572;2022-11-03T07:56:12;26.40;;;11.48;;
38132;SDS011;23948;43.252;26.572;2022-11-03T07:58:45;21.85;;;9.85;;
38132;SDS011;23948;43.252;26.572;2022-11-03T08:01:27;18.88;;;9.77;;
38132;SDS011;23948;43.252;26.572;2022-11-03T08:03:57;17.58;;;9.73;;
38132;SDS011;23948;43.252;26.572;2022-11-03T08:06:24;24.15;;;11.05;;
38132;SDS011;23948;43.252;26.572;2022-11-03T08:08:50;26.88;;;11.50;;
38132;SDS011;23948;43.252;26.572;2022-11-03T08:11:16;19.88;;;8.68;;
38132;SDS011;23948;43.252;26.572;2022-11-03T08:13:41;13.13;;;7.57;;
38132;SDS011;23948;43.252;26.572;2022-11-03T08:16:07;18.65;;;8.15;;
38132;SDS011;23948;43.252;26.572;2022-11-03T08:18:32;16.42;;;8.43;;
38132;SDS011;23948;43.252;26.572;2022-11-03T08:20:58;18.33;;;9.30;;
38132;SDS011;23948;43.252;26.572;2022-11-03T08:23:23;18.13;;;9.73;;
38132;SDS011;23948;43.252;26.572;2022-11-03T08:25:48;15.05;;;7.03;;
38132;SDS011;23948;43.252;26.572;2022-11-03T08:28:14;22.25;;;10.18;;
38132;SDS011;23948;43.252;26.572;2022-11-03T08:30:39;13.88;;;7.13;;
38132;SDS011;23948;43.252;26.572;2022-11-03T08:33:05;14.48;;;7.30;;
38132;SDS011;23948;43.252;26.572;2022-11-03T08:35:30;14.95;;;7.57;;
38132;SDS011;23948;43.252;26.572;2022-11-03T08:37:56;10.35;;;6.75;;
38132;SDS011;23948;43.252;26.572;2022-11-03T08:40:21;11.88;;;7.22;;
38132;SDS011;23948;43.252;26.572;2022-11-03T08:42:47;14.60;;;6.97;;
38132;SDS011;23948;43.252;26.572;2022-11-03T08:45:14;13.40;;;7.63;;
38132;SDS011;23948;43.252;26.572;2022-11-03T08:47:40;12.30;;;6.65;;
38132;SDS011;23948;43.252;26.572;2022-11-03T08:50:05;11.50;;;6.15;;
38132;SDS011;23948;43.252;26.572;2022-11-03T08:52:31;9.45;;;6.28;;
38132;SDS011;23948;43.252;26.572;2022-11-03T08:54:57;13.43;;;6.85;;
38132;SDS011;23948;43.252;26.572;2022-11-03T08:57:22;10.50;;;6.22;;
38132;SDS011;23948;43.252;26.572;2022-11-03T08:59:48;9.13;;;6.00;;
38132;SDS011;23948;43.252;26.572;2022-11-03T09:02:13;9.75;;;6.22;;
38132;SDS011;23948;43.252;26.572;2022-11-03T09:04:40;11.95;;;6.80;;
38132;SDS011;23948;43.252;26.572;2022-11-03T09:07:05;14.02;;;7.20;;
38132;SDS011;23948;43.252;26.572;2022-11-03T09:09:31;12.40;;;6.53;;
38132;SDS011;23948;43.252;26.572;2022-11-03T09:11:56;12.98;;;6.68;;
38132;SDS011;23948;43.252;26.572;2022-11-03T09:14:22;15.10;;;6.18;;
38132;SDS011;23948;43.252;26.572;2022-11-03T09:16:47;11.57;;;6.20;;
38132;SDS011;23948;43.252;26.572;2022-11-03T09:19:12;11.68;;;6.13;;
38132;SDS011;23948;43.252;26.572;2022-11-03T09:21:38;11.27;;;6.43;;
38132;SDS011;23948;43.252;26.572;2022-11-03T09:24:04;13.05;;;6.53;;
38132;SDS011;23948;43.252;26.572;2022-11-03T09:26:29;14.82;;;6.93;;
38132;SDS011;23948;43.252;26.572;2022-11-03T09:28:55;10.80;;;6.20;;
38132;SDS011;23948;43.252;26.572;2022-11-03T09:31:20;11.43;;;6.20;;
38132;SDS011;23948;43.252;26.572;2022-11-03T09:33:46;11.48;;;5.95;;
38132;SDS011;23948;43.252;26.572;2022-11-03T09:36:12;12.15;;;6.63;;
38132;SDS011;23948;43.252;26.572;2022-11-03T09:38:37;10.07;;;5.95;;
38132;SDS011;23948;43.252;26.572;2022-11-03T09:41:03;11.55;;;6.35;;
38132;SDS011;23948;43.252;26.572;2022-11-03T09:43:30;14.52;;;7.15;;
38132;SDS011;23948;43.252;26.572;2022-11-03T09:45:56;10.57;;;6.47;;
38132;SDS011;23948;43.252;26.572;2022-11-03T09:48:23;10.60;;;5.97;;
38132;SDS011;23948;43.252;26.572;2022-11-03T09:50:50;12.25;;;7.10;;
38132;SDS011;23948;43.252;26.572;2022-11-03T09:53:17;16.02;;;6.85;;
38132;SDS011;23948;43.252;26.572;2022-11-03T09:55:43;15.27;;;7.53;;
38132;SDS011;23948;43.252;26.572;2022-11-03T09:58:11;13.88;;;7.93;;
38132;SDS011;23948;43.252;26.572;2022-11-03T10:00:39;11.93;;;7.30;;
38132;SDS011;23948;43.252;26.572;2022-11-03T10:03:05;16.10;;;8.38;;
38132;SDS011;23948;43.252;26.572;2022-11-03T10:05:34;15.15;;;8.35;;
38132;SDS011;23948;43.252;26.572;2022-11-03T10:08:00;15.77;;;7.07;;
38132;SDS011;23948;43.252;26.572;2022-11-03T10:12:55;13.82;;;7.15;;
38132;SDS011;23948;43.252;26.572;2022-11-03T10:15:22;13.25;;;6.70;;
38132;SDS011;23948;43.252;26.572;2022-11-03T10:17:49;12.80;;;7.05;;
38132;SDS011;23948;43.252;26.572;2022-11-03T10:20:16;13.43;;;6.65;;
38132;SDS011;23948;43.252;26.572;2022-11-03T10:22:44;13.70;;;8.20;;
38132;SDS011;23948;43.252;26.572;2022-11-03T10:28:09;12.05;;;7.00;;
38132;SDS011;23948;43.252;26.572;2022-11-03T10:30:41;9.52;;;6.60;;
38132;SDS011;23948;43.252;26.572;2022-11-03T10:33:25;12.57;;;6.40;;
38132;SDS011;23948;43.252;26.572;2022-11-03T10:36:04;14.23;;;7.20;;
38132;SDS011;23948;43.252;26.572;2022-11-03T10:38:46;11.77;;;6.35;;
38132;SDS011;23948;43.252;26.572;2022-11-03T10:41:16;12.68;;;6.97;;
38132;SDS011;23948;43.252;26.572;2022-11-03T10:44:02;12.05;;;7.05;;
38132;SDS011;23948;43.252;26.572;2022-11-03T10:46:56;15.75;;;7.40;;
38132;SDS011;23948;43.252;26.572;2022-11-03T10:49:42;14.85;;;7.07;;
38132;SDS011;23948;43.252;26.572;2022-11-03T10:52:24;10.75;;;6.53;;
38132;SDS011;23948;43.252;26.572;2022-11-03T10:54:51;12.25;;;6.53;;
38132;SDS011;23948;43.252;26.572;2022-11-03T10:57:18;14.95;;;7.25;;
38132;SDS011;23948;43.252;26.572;2022-11-03T10:59:45;15.55;;;6.85;;
38132;SDS011;23948;43.252;26.572;2022-11-03T11:02:19;11.90;;;7.47;;
38132;SDS011;23948;43.252;26.572;2022-11-03T11:04:49;16.42;;;7.47;;
38132;SDS011;23948;43.252;26.572;2022-11-03T11:07:22;20.33;;;9.73;;
38132;SDS011;23948;43.252;26.572;2022-11-03T11:09:51;12.23;;;7.90;;
38132;SDS011;23948;43.252;26.572;2022-11-03T11:17:56;14.25;;;7.20;;
38132;SDS011;23948;43.252;26.572;2022-11-03T11:20:29;14.93;;;7.28;;
38132;SDS011;23948;43.252;26.572;2022-11-03T11:28:34;13.57;;;6.75;;
38132;SDS011;23948;43.252;26.572;2022-11-03T11:36:38;13.65;;;6.93;;
38132;SDS011;23948;43.252;26.572;2022-11-03T11:50:16;11.38;;;6.22;;
38132;SDS011;23948;43.252;26.572;2022-11-03T11:53:20;11.25;;;5.82;;
38132;SDS011;23948;43.252;26.572;2022-11-03T11:55:50;15.40;;;6.63;;
38132;SDS011;23948;43.252;26.572;2022-11-03T11:58:20;10.07;;;6.20;;
38132;SDS011;23948;43.252;26.572;2022-11-03T12:00:54;11.13;;;5.90;;
38132;SDS011;23948;43.252;26.572;2022-11-03T12:03:23;19.23;;;6.85;;
38132;SDS011;23948;43.252;26.572;2022-11-03T12:05:52;10.50;;;6.03;;
38132;SDS011;23948;43.252;26.572;2022-11-03T12:08:18;11.60;;;5.63;;
38132;SDS011;23948;43.252;26.572;2022-11-03T12:10:51;11.93;;;5.72;;
38132;SDS011;23948;43.252;26.572;2022-11-03T12:18:54;12.23;;;6.40;;
38132;SDS011;23948;43.252;26.572;2022-11-03T12:27:01;13.07;;;6.28;;
38132;SDS011;23948;43.252;26.572;2022-11-03T12:29:28;11.10;;;5.63;;
38132;SDS011;23948;43.252;26.572;2022-11-03T12:31:53;12.70;;;5.93;;
38132;SDS011;23948;43.252;26.572;2022-11-03T12:34:19;9.65;;;5.35;;
38132;SDS011;23948;43.252;26.572;2022-11-03T12:36:46;12.07;;;6.45;;
38132;SDS011;23948;43.252;26.572;2022-11-03T12:39:11;15.73;;;6.70;;
38132;SDS011;23948;43.252;26.572;2022-11-03T12:41:37;11.18;;;5.75;;
38132;SDS011;23948;43.252;26.572;2022-11-03T12:44:02;8.48;;;6.00;;
38132;SDS011;23948;43.252;26.572;2022-11-03T12:46:28;11.15;;;6.40;;
38132;SDS011;23948;43.252;26.572;2022-11-03T12:48:54;11.10;;;5.85;;
38132;SDS011;23948;43.252;26.572;2022-11-03T12:51:20;9.23;;;5.70;;
38132;SDS011;23948;43.252;26.572;2022-11-03T12:53:47;9.57;;;5.53;;
38132;SDS011;23948;43.252;26.572;2022-11-03T12:56:14;10.43;;;6.43;;
38132;SDS011;23948;43.252;26.572;2022-11-03T12:58:40;11.98;;;7.95;;
38132;SDS011;23948;43.252;26.572;2022-11-03T13:01:06;15.98;;;11.70;;
38132;SDS011;23948;43.252;26.572;2022-11-03T13:03:32;13.10;;;9.90;;
38132;SDS011;23948;43.252;26.572;2022-11-03T13:05:59;12.80;;;6.40;;
38132;SDS011;23948;43.252;26.572;2022-11-03T13:08:25;10.80;;;6.13;;
38132;SDS011;23948;43.252;26.572;2022-11-03T13:10:51;11.13;;;5.93;;
38132;SDS011;23948;43.252;26.572;2022-11-03T13:13:17;11.98;;;5.75;;
38132;SDS011;23948;43.252;26.572;2022-11-03T13:15:43;15.52;;;9.85;;
38132;SDS011;23948;43.252;26.572;2022-11-03T13:18:08;10.10;;;5.72;;
38132;SDS011;23948;43.252;26.572;2022-11-03T13:20:34;8.95;;;6.45;;
38132;SDS011;23948;43.252;26.572;2022-11-03T13:23:00;10.57;;;6.05;;
38132;SDS011;23948;43.252;26.572;2022-11-03T13:25:26;12.80;;;6.15;;
38132;SDS011;23948;43.252;26.572;2022-11-03T13:27:53;10.95;;;6.45;;
38132;SDS011;23948;43.252;26.572;2022-11-03T13:30:19;10.30;;;6.05;;
38132;SDS011;23948;43.252;26.572;2022-11-03T13:32:45;12.32;;;7.57;;
38132;SDS011;23948;43.252;26.572;2022-11-03T13:35:11;12.10;;;8.45;;
38132;SDS011;23948;43.252;26.572;2022-11-03T13:37:37;10.75;;;6.32;;
38132;SDS011;23948;43.252;26.572;2022-11-03T13:40:02;14.55;;;6.40;;
38132;SDS011;23948;43.252;26.572;2022-11-03T13:42:28;11.65;;;6.70;;
38132;SDS011;23948;43.252;26.572;2022-11-03T13:44:54;11.77;;;6.40;;
38132;SDS011;23948;43.252;26.572;2022-11-03T13:47:20;9.23;;;6.03;;
38132;SDS011;23948;43.252;26.572;2022-11-03T13:49:46;12.73;;;6.63;;
38132;SDS011;23948;43.252;26.572;2022-11-03T13:52:11;13.13;;;6.65;;
38132;SDS011;23948;43.252;26.572;2022-11-03T13:54:37;15.88;;;6.80;;
38132;SDS011;23948;43.252;26.572;2022-11-03T13:57:02;12.77;;;6.88;;
38132;SDS011;23948;43.252;26.572;2022-11-03T13:59:28;12.65;;;6.10;;
38132;SDS011;23948;43.252;26.572;2022-11-03T14:01:55;14.13;;;8.98;;
38132;SDS011;23948;43.252;26.572;2022-11-03T14:04:20;11.63;;;7.28;;
38132;SDS011;23948;43.252;26.572;2022-11-03T14:06:46;12.07;;;5.90;;
38132;SDS011;23948;43.252;26.572;2022-11-03T14:09:11;11.60;;;5.75;;
38132;SDS011;23948;43.252;26.572;2022-11-03T14:11:37;16.58;;;7.18;;
38132;SDS011;23948;43.252;26.572;2022-11-03T14:14:20;14.85;;;6.90;;
38132;SDS011;23948;43.252;26.572;2022-11-03T14:16:47;14.85;;;8.45;;
38132;SDS011;23948;43.252;26.572;2022-11-03T14:19:13;10.60;;;5.97;;
38132;SDS011;23948;43.252;26.572;2022-11-03T14:21:38;12.00;;;6.18;;
38132;SDS011;23948;43.252;26.572;2022-11-03T14:24:06;8.93;;;5.32;;
38132;SDS011;23948;43.252;26.572;2022-11-03T14:26:32;13.05;;;6.18;;
38132;SDS011;23948;43.252;26.572;2022-11-03T14:28:58;11.25;;;5.68;;
38132;SDS011;23948;43.252;26.572;2022-11-03T14:31:23;10.48;;;5.93;;
38132;SDS011;23948;43.252;26.572;2022-11-03T14:33:48;13.10;;;5.75;;
38132;SDS011;23948;43.252;26.572;2022-11-03T14:36:15;14.35;;;5.78;;
38132;SDS011;23948;43.252;26.572;2022-11-03T14:38:40;12.52;;;6.10;;
38132;SDS011;23948;43.252;26.572;2022-11-03T14:41:06;11.88;;;6.00;;
38132;SDS011;23948;43.252;26.572;2022-11-03T14:43:50;10.63;;;6.05;;
38132;SDS011;23948;43.252;26.572;2022-11-03T14:46:16;12.88;;;7.05;;
38132;SDS011;23948;43.252;26.572;2022-11-03T14:48:41;47.15;;;27.50;;
38132;SDS011;23948;43.252;26.572;2022-11-03T14:51:07;37.05;;;25.17;;
38132;SDS011;23948;43.252;26.572;2022-11-03T14:53:32;25.35;;;14.55;;
38132;SDS011;23948;43.252;26.572;2022-11-03T14:55:58;22.90;;;13.00;;
38132;SDS011;23948;43.252;26.572;2022-11-03T14:58:23;28.48;;;16.67;;
38132;SDS011;23948;43.252;26.572;2022-11-03T15:00:49;35.13;;;31.42;;
38132;SDS011;23948;43.252;26.572;2022-11-03T15:03:14;13.05;;;10.13;;
38132;SDS011;23948;43.252;26.572;2022-11-03T15:05:40;12.02;;;7.15;;
38132;SDS011;23948;43.252;26.572;2022-11-03T15:08:12;12.85;;;7.22;;
38132;SDS011;23948;43.252;26.572;2022-11-03T15:10:39;12.13;;;6.53;;
38132;SDS011;23948;43.252;26.572;2022-11-03T15:13:05;11.45;;;7.13;;
38132;SDS011;23948;43.252;26.572;2022-11-03T15:15:30;18.02;;;7.82;;
38132;SDS011;23948;43.252;26.572;2022-11-03T15:17:56;15.57;;;7.03;;
38132;SDS011;23948;43.252;26.572;2022-11-03T15:20:21;18.75;;;7.70;;
38132;SDS011;23948;43.252;26.572;2022-11-03T15:22:47;15.75;;;8.60;;
38132;SDS011;23948;43.252;26.572;2022-11-03T15:25:12;19.25;;;7.70;;
38132;SDS011;23948;43.252;26.572;2022-11-03T15:27:38;16.85;;;8.20;;
38132;SDS011;23948;43.252;26.572;2022-11-03T15:30:04;21.77;;;10.40;;
38132;SDS011;23948;43.252;26.572;2022-11-03T15:32:31;19.25;;;9.90;;
38132;SDS011;23948;43.252;26.572;2022-11-03T15:34:57;27.92;;;14.88;;
38132;SDS011;23948;43.252;26.572;2022-11-03T15:37:22;23.55;;;13.65;;
38132;SDS011;23948;43.252;26.572;2022-11-03T15:39:49;24.48;;;12.65;;
38132;SDS011;23948;43.252;26.572;2022-11-03T15:42:14;34.55;;;14.60;;
38132;SDS011;23948;43.252;26.572;2022-11-03T15:44:40;53.55;;;23.20;;
38132;SDS011;23948;43.252;26.572;2022-11-03T15:47:05;43.50;;;19.48;;
38132;SDS011;23948;43.252;26.572;2022-11-03T15:49:31;37.55;;;17.20;;